Search for airport 
image banner adimage banner adimage banner ad
image banner ad

KSMF - Sacramento Intl

Located in Sacramento, United States

ICAO - SMF, IATA - SMF

Data provided by Airmate  

General information

Coordinates: N38°41'44" W121°35'27"
Elevation is 27 feet MSL.
Magnetic variation is 13° East
View others Airports in California

Operational data

Special qualification required
Current time UTC:
Current local time:
Weather
METAR: KSMF 210153Z 00000KT 10SM CLR 30/04 A2990 RMK AO2 SLP124 T03000044
TAF: KSMF 202320Z 2100/2124 33010G15KT P6SM SKC FM210100 32008KT P6SM SKC FM211800 25005KT P6SM SKC
View NOTAMs / SUP AIP / TFR affecting this airport [VIEW]
Communications frequencies: [VIEW]

Runways:

RWY identifierQFULength (ft)Width (ft)SurfaceLDA (ft)
17L181°8605150CONC8605
35R8605150CONC8605
17R181°8598150CONC8598
35L8598150CONC8598

Airport contact information

Address: Sacramento United States

Satellite view of KSMF